sensor_id;sensor_type;location;lat;lon;timestamp;P1;durP1;ratioP1;P2;durP2;ratioP2
20462;SDS011;10390;53.566;9.980;2023-02-12T00:01:36;5.70;;;2.85;;
20462;SDS011;10390;53.566;9.980;2023-02-12T00:04:01;4.88;;;2.65;;
20462;SDS011;10390;53.566;9.980;2023-02-12T00:06:27;5.65;;;2.67;;
20462;SDS011;10390;53.566;9.980;2023-02-12T00:08:54;5.13;;;2.70;;
20462;SDS011;10390;53.566;9.980;2023-02-12T00:11:21;7.32;;;3.22;;
20462;SDS011;10390;53.566;9.980;2023-02-12T00:13:52;7.93;;;3.03;;
20462;SDS011;10390;53.566;9.980;2023-02-12T00:16:19;5.05;;;2.60;;
20462;SDS011;10390;53.566;9.980;2023-02-12T00:18:47;5.47;;;3.10;;
20462;SDS011;10390;53.566;9.980;2023-02-12T00:21:16;4.80;;;2.83;;
20462;SDS011;10390;53.566;9.980;2023-02-12T00:23:42;4.72;;;2.80;;
20462;SDS011;10390;53.566;9.980;2023-02-12T00:26:15;6.43;;;3.20;;
20462;SDS011;10390;53.566;9.980;2023-02-12T00:28:42;6.97;;;3.00;;
20462;SDS011;10390;53.566;9.980;2023-02-12T00:31:09;5.45;;;2.65;;
20462;SDS011;10390;53.566;9.980;2023-02-12T00:33:37;4.28;;;2.47;;
20462;SDS011;10390;53.566;9.980;2023-02-12T00:36:03;4.85;;;2.92;;
20462;SDS011;10390;53.566;9.980;2023-02-12T00:38:30;5.65;;;2.60;;
20462;SDS011;10390;53.566;9.980;2023-02-12T00:40:55;4.57;;;2.70;;
20462;SDS011;10390;53.566;9.980;2023-02-12T00:43:21;4.70;;;2.60;;
20462;SDS011;10390;53.566;9.980;2023-02-12T00:45:47;4.55;;;2.40;;
20462;SDS011;10390;53.566;9.980;2023-02-12T00:48:13;5.80;;;2.78;;
20462;SDS011;10390;53.566;9.980;2023-02-12T00:50:39;5.13;;;2.60;;
20462;SDS011;10390;53.566;9.980;2023-02-12T00:53:05;5.32;;;2.58;;
20462;SDS011;10390;53.566;9.980;2023-02-12T00:55:32;4.45;;;2.42;;
20462;SDS011;10390;53.566;9.980;2023-02-12T00:57:58;4.97;;;2.60;;
20462;SDS011;10390;53.566;9.980;2023-02-12T01:00:24;4.03;;;2.40;;
20462;SDS011;10390;53.566;9.980;2023-02-12T01:02:50;4.05;;;2.20;;
20462;SDS011;10390;53.566;9.980;2023-02-12T01:05:16;4.53;;;2.38;;
20462;SDS011;10390;53.566;9.980;2023-02-12T01:07:43;4.65;;;2.05;;
20462;SDS011;10390;53.566;9.980;2023-02-12T01:10:13;4.45;;;2.20;;
20462;SDS011;10390;53.566;9.980;2023-02-12T01:12:38;4.90;;;2.47;;
20462;SDS011;10390;53.566;9.980;2023-02-12T01:15:04;5.95;;;2.58;;
20462;SDS011;10390;53.566;9.980;2023-02-12T01:17:30;3.67;;;2.13;;
20462;SDS011;10390;53.566;9.980;2023-02-12T01:19:56;4.35;;;2.50;;
20462;SDS011;10390;53.566;9.980;2023-02-12T01:22:22;4.18;;;2.47;;
20462;SDS011;10390;53.566;9.980;2023-02-12T01:24:48;4.18;;;2.40;;
20462;SDS011;10390;53.566;9.980;2023-02-12T01:27:14;3.97;;;2.50;;
20462;SDS011;10390;53.566;9.980;2023-02-12T01:29:40;4.38;;;2.10;;
20462;SDS011;10390;53.566;9.980;2023-02-12T01:32:08;3.83;;;2.10;;
20462;SDS011;10390;53.566;9.980;2023-02-12T01:34:35;4.40;;;2.20;;
20462;SDS011;10390;53.566;9.980;2023-02-12T01:37:01;4.53;;;2.50;;
20462;SDS011;10390;53.566;9.980;2023-02-12T01:39:27;4.45;;;2.28;;
20462;SDS011;10390;53.566;9.980;2023-02-12T01:41:52;4.25;;;2.30;;
20462;SDS011;10390;53.566;9.980;2023-02-12T01:44:19;3.70;;;2.10;;
20462;SDS011;10390;53.566;9.980;2023-02-12T01:46:47;4.13;;;2.00;;
20462;SDS011;10390;53.566;9.980;2023-02-12T01:49:18;3.97;;;2.10;;
20462;SDS011;10390;53.566;9.980;2023-02-12T01:51:51;4.18;;;2.28;;
20462;SDS011;10390;53.566;9.980;2023-02-12T01:54:21;4.43;;;2.45;;
20462;SDS011;10390;53.566;9.980;2023-02-12T01:56:49;3.95;;;2.10;;
20462;SDS011;10390;53.566;9.980;2023-02-12T01:59:15;3.70;;;2.10;;
20462;SDS011;10390;53.566;9.980;2023-02-12T02:01:43;3.40;;;1.90;;
20462;SDS011;10390;53.566;9.980;2023-02-12T02:04:11;4.65;;;2.33;;
20462;SDS011;10390;53.566;9.980;2023-02-12T02:09:25;4.03;;;2.30;;
20462;SDS011;10390;53.566;9.980;2023-02-12T02:11:52;3.40;;;1.80;;
20462;SDS011;10390;53.566;9.980;2023-02-12T02:14:36;4.28;;;2.22;;
20462;SDS011;10390;53.566;9.980;2023-02-12T02:31:03;4.28;;;2.13;;
20462;SDS011;10390;53.566;9.980;2023-02-12T02:33:55;4.45;;;2.47;;
20462;SDS011;10390;53.566;9.980;2023-02-12T02:39:17;3.78;;;2.30;;
20462;SDS011;10390;53.566;9.980;2023-02-12T02:41:54;3.55;;;1.92;;
20462;SDS011;10390;53.566;9.980;2023-02-12T02:44:34;4.15;;;2.33;;
20462;SDS011;10390;53.566;9.980;2023-02-12T02:47:26;3.75;;;2.00;;
20462;SDS011;10390;53.566;9.980;2023-02-12T02:50:07;3.42;;;1.92;;
20462;SDS011;10390;53.566;9.980;2023-02-12T02:52:37;4.00;;;2.00;;
20462;SDS011;10390;53.566;9.980;2023-02-12T02:55:11;3.83;;;2.00;;
20462;SDS011;10390;53.566;9.980;2023-02-12T02:57:44;4.30;;;2.20;;
20462;SDS011;10390;53.566;9.980;2023-02-12T03:03:15;3.30;;;1.90;;
20462;SDS011;10390;53.566;9.980;2023-02-12T03:05:45;3.58;;;2.17;;
20462;SDS011;10390;53.566;9.980;2023-02-12T03:10:39;5.07;;;2.50;;
20462;SDS011;10390;53.566;9.980;2023-02-12T03:13:13;3.60;;;2.10;;
20462;SDS011;10390;53.566;9.980;2023-02-12T03:16:29;4.60;;;2.22;;
20462;SDS011;10390;53.566;9.980;2023-02-12T03:19:10;4.97;;;2.20;;
20462;SDS011;10390;53.566;9.980;2023-02-12T03:24:15;3.30;;;2.00;;
20462;SDS011;10390;53.566;9.980;2023-02-12T03:26:47;3.38;;;1.98;;
20462;SDS011;10390;53.566;9.980;2023-02-12T03:29:22;3.20;;;2.00;;
20462;SDS011;10390;53.566;9.980;2023-02-12T03:31:53;3.83;;;2.22;;
20462;SDS011;10390;53.566;9.980;2023-02-12T03:37:08;5.10;;;2.30;;
20462;SDS011;10390;53.566;9.980;2023-02-12T03:39:47;3.53;;;2.00;;
20462;SDS011;10390;53.566;9.980;2023-02-12T03:42:26;3.15;;;1.90;;
20462;SDS011;10390;53.566;9.980;2023-02-12T03:44:57;3.95;;;2.03;;
20462;SDS011;10390;53.566;9.980;2023-02-12T03:50:27;3.70;;;2.10;;
20462;SDS011;10390;53.566;9.980;2023-02-12T03:52:57;3.42;;;1.92;;
20462;SDS011;10390;53.566;9.980;2023-02-12T03:55:23;3.30;;;1.90;;
20462;SDS011;10390;53.566;9.980;2023-02-12T03:57:51;3.58;;;2.10;;
20462;SDS011;10390;53.566;9.980;2023-02-12T04:00:24;3.45;;;2.10;;
20462;SDS011;10390;53.566;9.980;2023-02-12T04:02:51;3.30;;;2.00;;
20462;SDS011;10390;53.566;9.980;2023-02-12T04:05:22;7.45;;;1.80;;
20462;SDS011;10390;53.566;9.980;2023-02-12T04:07:49;3.40;;;2.00;;
20462;SDS011;10390;53.566;9.980;2023-02-12T04:10:17;3.40;;;1.90;;
20462;SDS011;10390;53.566;9.980;2023-02-12T04:18:48;3.53;;;2.05;;
20462;SDS011;10390;53.566;9.980;2023-02-12T04:24:07;3.47;;;2.10;;
20462;SDS011;10390;53.566;9.980;2023-02-12T04:29:34;4.13;;;2.42;;
20462;SDS011;10390;53.566;9.980;2023-02-12T04:35:10;3.30;;;2.05;;
20462;SDS011;10390;53.566;9.980;2023-02-12T04:37:51;3.17;;;1.90;;
20462;SDS011;10390;53.566;9.980;2023-02-12T04:40:23;4.53;;;2.17;;
20462;SDS011;10390;53.566;9.980;2023-02-12T04:42:50;3.15;;;1.90;;
20462;SDS011;10390;53.566;9.980;2023-02-12T04:45:21;3.60;;;2.08;;
20462;SDS011;10390;53.566;9.980;2023-02-12T04:47:52;3.40;;;2.10;;
20462;SDS011;10390;53.566;9.980;2023-02-12T04:50:18;3.88;;;1.92;;
20462;SDS011;10390;53.566;9.980;2023-02-12T04:52:43;3.70;;;2.10;;
20462;SDS011;10390;53.566;9.980;2023-02-12T04:55:09;3.47;;;1.85;;
20462;SDS011;10390;53.566;9.980;2023-02-12T04:57:41;3.30;;;1.98;;
20462;SDS011;10390;53.566;9.980;2023-02-12T05:00:10;3.85;;;2.13;;
20462;SDS011;10390;53.566;9.980;2023-02-12T05:02:37;4.38;;;2.20;;
20462;SDS011;10390;53.566;9.980;2023-02-12T05:05:03;3.72;;;2.08;;
20462;SDS011;10390;53.566;9.980;2023-02-12T05:07:28;3.70;;;2.10;;
20462;SDS011;10390;53.566;9.980;2023-02-12T05:09:54;4.60;;;2.10;;
20462;SDS011;10390;53.566;9.980;2023-02-12T05:12:20;3.25;;;2.10;;
20462;SDS011;10390;53.566;9.980;2023-02-12T05:14:45;3.70;;;2.25;;
20462;SDS011;10390;53.566;9.980;2023-02-12T05:17:11;4.00;;;2.35;;
20462;SDS011;10390;53.566;9.980;2023-02-12T05:19:36;3.60;;;2.30;;
20462;SDS011;10390;53.566;9.980;2023-02-12T05:22:02;3.58;;;1.90;;
20462;SDS011;10390;53.566;9.980;2023-02-12T05:24:28;3.42;;;2.00;;
20462;SDS011;10390;53.566;9.980;2023-02-12T05:26:53;4.22;;;2.00;;
20462;SDS011;10390;53.566;9.980;2023-02-12T05:29:19;3.40;;;2.00;;
20462;SDS011;10390;53.566;9.980;2023-02-12T05:31:44;3.70;;;2.30;;
20462;SDS011;10390;53.566;9.980;2023-02-12T05:34:10;4.43;;;2.20;;
20462;SDS011;10390;53.566;9.980;2023-02-12T05:36:37;4.00;;;2.20;;
20462;SDS011;10390;53.566;9.980;2023-02-12T05:39:03;4.40;;;2.40;;
20462;SDS011;10390;53.566;9.980;2023-02-12T05:41:29;3.60;;;2.30;;
20462;SDS011;10390;53.566;9.980;2023-02-12T05:43:59;3.53;;;2.30;;
20462;SDS011;10390;53.566;9.980;2023-02-12T05:46:25;3.65;;;2.22;;
20462;SDS011;10390;53.566;9.980;2023-02-12T05:48:51;3.60;;;2.38;;
20462;SDS011;10390;53.566;9.980;2023-02-12T05:51:18;4.25;;;2.30;;
20462;SDS011;10390;53.566;9.980;2023-02-12T05:53:47;4.10;;;2.50;;
20462;SDS011;10390;53.566;9.980;2023-02-12T05:56:18;3.88;;;2.50;;
20462;SDS011;10390;53.566;9.980;2023-02-12T05:58:46;4.13;;;2.63;;
20462;SDS011;10390;53.566;9.980;2023-02-12T06:01:37;3.53;;;2.10;;
20462;SDS011;10390;53.566;9.980;2023-02-12T06:04:06;3.75;;;2.15;;
20462;SDS011;10390;53.566;9.980;2023-02-12T06:06:37;3.80;;;2.20;;
20462;SDS011;10390;53.566;9.980;2023-02-12T06:09:06;3.80;;;2.20;;
20462;SDS011;10390;53.566;9.980;2023-02-12T06:11:32;4.00;;;2.25;;
20462;SDS011;10390;53.566;9.980;2023-02-12T06:14:00;3.95;;;2.30;;
20462;SDS011;10390;53.566;9.980;2023-02-12T06:16:33;3.67;;;2.25;;
20462;SDS011;10390;53.566;9.980;2023-02-12T06:18:59;3.95;;;2.05;;
20462;SDS011;10390;53.566;9.980;2023-02-12T06:21:27;4.05;;;2.50;;
20462;SDS011;10390;53.566;9.980;2023-02-12T06:23:53;3.95;;;2.38;;
20462;SDS011;10390;53.566;9.980;2023-02-12T06:26:19;3.78;;;2.20;;
20462;SDS011;10390;53.566;9.980;2023-02-12T06:28:45;3.85;;;2.30;;
20462;SDS011;10390;53.566;9.980;2023-02-12T06:33:47;3.47;;;2.10;;
20462;SDS011;10390;53.566;9.980;2023-02-12T06:36:13;3.97;;;2.15;;
20462;SDS011;10390;53.566;9.980;2023-02-12T06:38:40;4.05;;;2.15;;
20462;SDS011;10390;53.566;9.980;2023-02-12T06:41:06;3.65;;;2.40;;
20462;SDS011;10390;53.566;9.980;2023-02-12T06:43:31;5.07;;;2.50;;
20462;SDS011;10390;53.566;9.980;2023-02-12T06:46:00;4.55;;;2.47;;
20462;SDS011;10390;53.566;9.980;2023-02-12T06:48:26;4.13;;;2.65;;
20462;SDS011;10390;53.566;9.980;2023-02-12T06:50:53;3.88;;;2.10;;
20462;SDS011;10390;53.566;9.980;2023-02-12T06:53:18;4.00;;;2.45;;
20462;SDS011;10390;53.566;9.980;2023-02-12T06:55:44;3.83;;;2.22;;
20462;SDS011;10390;53.566;9.980;2023-02-12T06:58:09;4.47;;;2.42;;
20462;SDS011;10390;53.566;9.980;2023-02-12T07:00:35;4.13;;;2.70;;
20462;SDS011;10390;53.566;9.980;2023-02-12T07:03:01;3.97;;;2.53;;
20462;SDS011;10390;53.566;9.980;2023-02-12T07:05:26;3.70;;;2.15;;
20462;SDS011;10390;53.566;9.980;2023-02-12T07:07:52;4.07;;;2.35;;
20462;SDS011;10390;53.566;9.980;2023-02-12T07:10:17;4.05;;;2.25;;
20462;SDS011;10390;53.566;9.980;2023-02-12T07:12:43;5.07;;;2.40;;
20462;SDS011;10390;53.566;9.980;2023-02-12T07:15:09;4.70;;;2.65;;
20462;SDS011;10390;53.566;9.980;2023-02-12T07:17:35;3.78;;;2.40;;
20462;SDS011;10390;53.566;9.980;2023-02-12T07:20:01;3.80;;;2.33;;
20462;SDS011;10390;53.566;9.980;2023-02-12T07:22:27;5.43;;;2.67;;
20462;SDS011;10390;53.566;9.980;2023-02-12T07:24:52;3.85;;;2.17;;
20462;SDS011;10390;53.566;9.980;2023-02-12T07:27:18;4.13;;;2.50;;
20462;SDS011;10390;53.566;9.980;2023-02-12T07:29:44;5.75;;;2.50;;
20462;SDS011;10390;53.566;9.980;2023-02-12T07:32:09;4.72;;;2.60;;
20462;SDS011;10390;53.566;9.980;2023-02-12T07:34:35;4.90;;;2.80;;
20462;SDS011;10390;53.566;9.980;2023-02-12T07:37:00;3.85;;;2.42;;
20462;SDS011;10390;53.566;9.980;2023-02-12T07:39:26;3.83;;;2.20;;
20462;SDS011;10390;53.566;9.980;2023-02-12T07:41:52;3.72;;;2.03;;
20462;SDS011;10390;53.566;9.980;2023-02-12T07:44:17;5.22;;;2.47;;
20462;SDS011;10390;53.566;9.980;2023-02-12T07:46:44;4.22;;;2.53;;
20462;SDS011;10390;53.566;9.980;2023-02-12T07:49:12;4.03;;;2.45;;
20462;SDS011;10390;53.566;9.980;2023-02-12T07:51:39;4.05;;;2.33;;
20462;SDS011;10390;53.566;9.980;2023-02-12T07:54:05;4.15;;;2.30;;
20462;SDS011;10390;53.566;9.980;2023-02-12T07:56:32;8.82;;;2.97;;
20462;SDS011;10390;53.566;9.980;2023-02-12T07:59:00;4.70;;;2.50;;
20462;SDS011;10390;53.566;9.980;2023-02-12T08:01:32;5.50;;;2.25;;
20462;SDS011;10390;53.566;9.980;2023-02-12T08:04:00;5.05;;;2.55;;
20462;SDS011;10390;53.566;9.980;2023-02-12T08:06:29;4.00;;;2.42;;
20462;SDS011;10390;53.566;9.980;2023-02-12T08:08:57;8.32;;;2.53;;
20462;SDS011;10390;53.566;9.980;2023-02-12T08:11:24;4.20;;;2.50;;
20462;SDS011;10390;53.566;9.980;2023-02-12T08:13:51;5.63;;;2.45;;
20462;SDS011;10390;53.566;9.980;2023-02-12T08:16:18;8.68;;;2.95;;
20462;SDS011;10390;53.566;9.980;2023-02-12T08:18:46;7.65;;;2.92;;
20462;SDS011;10390;53.566;9.980;2023-02-12T08:21:13;9.85;;;3.25;;
20462;SDS011;10390;53.566;9.980;2023-02-12T08:23:43;11.05;;;3.03;;
20462;SDS011;10390;53.566;9.980;2023-02-12T08:26:13;6.28;;;2.80;;
20462;SDS011;10390;53.566;9.980;2023-02-12T08:28:43;11.45;;;3.10;;
20462;SDS011;10390;53.566;9.980;2023-02-12T08:31:15;12.07;;;2.90;;
20462;SDS011;10390;53.566;9.980;2023-02-12T08:33:48;7.28;;;2.50;;
20462;SDS011;10390;53.566;9.980;2023-02-12T08:36:17;13.15;;;2.75;;
20462;SDS011;10390;53.566;9.980;2023-02-12T08:38:44;8.45;;;2.75;;
20462;SDS011;10390;53.566;9.980;2023-02-12T08:41:12;8.10;;;2.90;;
20462;SDS011;10390;53.566;9.980;2023-02-12T08:43:48;6.55;;;2.80;;
20462;SDS011;10390;53.566;9.980;2023-02-12T08:46:19;7.00;;;2.55;;
20462;SDS011;10390;53.566;9.980;2023-02-12T08:48:47;6.05;;;3.05;;
20462;SDS011;10390;53.566;9.980;2023-02-12T08:51:17;5.05;;;2.67;;
20462;SDS011;10390;53.566;9.980;2023-02-12T08:53:44;8.43;;;2.92;;
20462;SDS011;10390;53.566;9.980;2023-02-12T08:56:11;6.43;;;3.08;;
20462;SDS011;10390;53.566;9.980;2023-02-12T08:58:38;9.90;;;3.30;;
20462;SDS011;10390;53.566;9.980;2023-02-12T09:01:08;8.32;;;3.47;;
20462;SDS011;10390;53.566;9.980;2023-02-12T09:03:44;7.25;;;2.75;;
20462;SDS011;10390;53.566;9.980;2023-02-12T09:06:11;6.18;;;2.90;;
20462;SDS011;10390;53.566;9.980;2023-02-12T09:08:37;5.63;;;2.60;;
20462;SDS011;10390;53.566;9.980;2023-02-12T09:11:11;6.25;;;2.80;;
20462;SDS011;10390;53.566;9.980;2023-02-12T09:13:40;5.25;;;2.80;;
20462;SDS011;10390;53.566;9.980;2023-02-12T09:16:07;6.03;;;3.00;;
20462;SDS011;10390;53.566;9.980;2023-02-12T09:18:33;5.72;;;3.00;;
20462;SDS011;10390;53.566;9.980;2023-02-12T09:20:59;6.95;;;2.97;;
20462;SDS011;10390;53.566;9.980;2023-02-12T09:23:27;5.18;;;3.17;;
20462;SDS011;10390;53.566;9.980;2023-02-12T09:25:52;5.95;;;2.85;;
20462;SDS011;10390;53.566;9.980;2023-02-12T09:28:18;6.05;;;2.92;;
20462;SDS011;10390;53.566;9.980;2023-02-12T09:30:43;5.97;;;3.20;;
20462;SDS011;10390;53.566;9.980;2023-02-12T09:33:09;5.95;;;2.92;;
20462;SDS011;10390;53.566;9.980;2023-02-12T09:35:36;5.72;;;3.17;;
20462;SDS011;10390;53.566;9.980;2023-02-12T09:38:03;6.40;;;2.85;;
20462;SDS011;10390;53.566;9.980;2023-02-12T09:40:34;5.57;;;3.25;;
20462;SDS011;10390;53.566;9.980;2023-02-12T09:51:06;5.25;;;2.85;;
20462;SDS011;10390;53.566;9.980;2023-02-12T09:53:34;5.00;;;2.95;;
20462;SDS011;10390;53.566;9.980;2023-02-12T09:56:07;6.95;;;3.47;;
20462;SDS011;10390;53.566;9.980;2023-02-12T09:58:42;7.40;;;3.10;;
20462;SDS011;10390;53.566;9.980;2023-02-12T10:01:13;9.57;;;3.33;;
20462;SDS011;10390;53.566;9.980;2023-02-12T10:03:41;7.10;;;3.17;;
20462;SDS011;10390;53.566;9.980;2023-02-12T10:06:13;12.07;;;3.53;;
20462;SDS011;10390;53.566;9.980;2023-02-12T10:11:39;12.55;;;3.83;;
20462;SDS011;10390;53.566;9.980;2023-02-12T10:22:43;15.13;;;5.07;;
20462;SDS011;10390;53.566;9.980;2023-02-12T10:28:23;17.35;;;4.60;;
20462;SDS011;10390;53.566;9.980;2023-02-12T10:30:54;10.73;;;4.20;;
20462;SDS011;10390;53.566;9.980;2023-02-12T10:33:31;18.20;;;4.75;;
20462;SDS011;10390;53.566;9.980;2023-02-12T10:36:10;12.50;;;4.28;;
20462;SDS011;10390;53.566;9.980;2023-02-12T10:38:48;15.23;;;4.72;;
20462;SDS011;10390;53.566;9.980;2023-02-12T10:41:17;15.10;;;4.55;;
20462;SDS011;10390;53.566;9.980;2023-02-12T10:43:43;12.35;;;4.25;;
20462;SDS011;10390;53.566;9.980;2023-02-12T10:46:13;11.90;;;4.00;;
20462;SDS011;10390;53.566;9.980;2023-02-12T10:48:41;13.05;;;5.05;;
20462;SDS011;10390;53.566;9.980;2023-02-12T10:51:24;11.25;;;4.28;;
20462;SDS011;10390;53.566;9.980;2023-02-12T10:57:07;14.38;;;3.95;;
20462;SDS011;10390;53.566;9.980;2023-02-12T10:59:39;11.63;;;3.85;;
20462;SDS011;10390;53.566;9.980;2023-02-12T11:02:20;8.18;;;4.05;;
20462;SDS011;10390;53.566;9.980;2023-02-12T11:04:49;13.25;;;4.00;;
20462;SDS011;10390;53.566;9.980;2023-02-12T11:07:15;10.07;;;3.65;;
20462;SDS011;10390;53.566;9.980;2023-02-12T11:09:45;8.52;;;3.90;;
20462;SDS011;10390;53.566;9.980;2023-02-12T11:12:16;11.65;;;4.28;;
20462;SDS011;10390;53.566;9.980;2023-02-12T11:15:17;12.70;;;4.05;;
20462;SDS011;10390;53.566;9.980;2023-02-12T11:17:39;12.70;;;3.90;;
20462;SDS011;10390;53.566;9.980;2023-02-12T11:20:18;8.98;;;3.90;;
20462;SDS011;10390;53.566;9.980;2023-02-12T11:25:31;11.55;;;3.92;;
20462;SDS011;10390;53.566;9.980;2023-02-12T11:33:31;10.45;;;3.60;;
20462;SDS011;10390;53.566;9.980;2023-02-12T11:36:03;11.23;;;4.53;;
20462;SDS011;10390;53.566;9.980;2023-02-12T11:39:02;14.85;;;4.63;;
20462;SDS011;10390;53.566;9.980;2023-02-12T11:44:10;12.50;;;4.47;;
20462;SDS011;10390;53.566;9.980;2023-02-12T11:46:37;14.68;;;3.88;;
20462;SDS011;10390;53.566;9.980;2023-02-12T11:49:04;9.50;;;3.80;;
20462;SDS011;10390;53.566;9.980;2023-02-12T11:51:33;10.43;;;3.60;;
20462;SDS011;10390;53.566;9.980;2023-02-12T11:54:00;11.75;;;3.90;;
20462;SDS011;10390;53.566;9.980;2023-02-12T11:56:46;9.50;;;3.38;;
20462;SDS011;10390;53.566;9.980;2023-02-12T12:02:01;13.30;;;4.47;;
20462;SDS011;10390;53.566;9.980;2023-02-12T12:04:43;12.93;;;4.10;;
20462;SDS011;10390;53.566;9.980;2023-02-12T12:07:13;11.48;;;3.97;;
20462;SDS011;10390;53.566;9.980;2023-02-12T12:15:16;13.05;;;3.92;;
20462;SDS011;10390;53.566;9.980;2023-02-12T12:18:08;10.82;;;4.32;;
20462;SDS011;10390;53.566;9.980;2023-02-12T12:20:57;19.13;;;4.65;;
20462;SDS011;10390;53.566;9.980;2023-02-12T12:23:42;17.45;;;4.85;;
20462;SDS011;10390;53.566;9.980;2023-02-12T12:26:35;15.00;;;4.53;;
20462;SDS011;10390;53.566;9.980;2023-02-12T12:29:23;11.48;;;4.22;;
20462;SDS011;10390;53.566;9.980;2023-02-12T12:31:57;12.60;;;4.28;;
20462;SDS011;10390;53.566;9.980;2023-02-12T12:34:26;12.38;;;4.10;;
20462;SDS011;10390;53.566;9.980;2023-02-12T12:48:06;13.43;;;4.05;;
20462;SDS011;10390;53.566;9.980;2023-02-12T12:50:54;13.70;;;4.40;;
20462;SDS011;10390;53.566;9.980;2023-02-12T12:56:29;10.63;;;4.13;;
20462;SDS011;10390;53.566;9.980;2023-02-12T13:04:59;17.08;;;3.92;;
20462;SDS011;10390;53.566;9.980;2023-02-12T13:10:35;11.25;;;4.13;;
20462;SDS011;10390;53.566;9.980;2023-02-12T13:13:20;10.82;;;3.90;;
20462;SDS011;10390;53.566;9.980;2023-02-12T13:24:25;9.10;;;3.97;;
20462;SDS011;10390;53.566;9.980;2023-02-12T13:26:57;10.90;;;4.35;;
20462;SDS011;10390;53.566;9.980;2023-02-12T13:29:37;11.43;;;4.03;;
20462;SDS011;10390;53.566;9.980;2023-02-12T13:32:16;14.38;;;4.43;;
20462;SDS011;10390;53.566;9.980;2023-02-12T13:34:49;9.02;;;3.50;;
20462;SDS011;10390;53.566;9.980;2023-02-12T13:37:19;9.50;;;4.00;;
20462;SDS011;10390;53.566;9.980;2023-02-12T13:40:13;8.15;;;3.50;;
20462;SDS011;10390;53.566;9.980;2023-02-12T13:42:52;15.25;;;4.22;;
20462;SDS011;10390;53.566;9.980;2023-02-12T13:48:39;14.48;;;4.22;;
20462;SDS011;10390;53.566;9.980;2023-02-12T13:56:42;10.52;;;3.90;;
20462;SDS011;10390;53.566;9.980;2023-02-12T14:01:58;18.38;;;4.55;;
20462;SDS011;10390;53.566;9.980;2023-02-12T14:09:38;7.13;;;4.00;;
20462;SDS011;10390;53.566;9.980;2023-02-12T14:12:27;11.02;;;4.05;;
20462;SDS011;10390;53.566;9.980;2023-02-12T14:15:04;13.68;;;3.70;;
20462;SDS011;10390;53.566;9.980;2023-02-12T14:20:21;9.55;;;4.20;;
20462;SDS011;10390;53.566;9.980;2023-02-12T14:23:02;11.90;;;4.20;;
20462;SDS011;10390;53.566;9.980;2023-02-12T14:25:32;18.38;;;4.65;;
20462;SDS011;10390;53.566;9.980;2023-02-12T14:28:16;8.68;;;3.67;;
20462;SDS011;10390;53.566;9.980;2023-02-12T14:31:17;12.93;;;4.15;;
20462;SDS011;10390;53.566;9.980;2023-02-12T14:33:43;13.18;;;4.18;;
20462;SDS011;10390;53.566;9.980;2023-02-12T14:41:33;8.55;;;3.92;;
20462;SDS011;10390;53.566;9.980;2023-02-12T14:46:58;13.63;;;4.88;;
20462;SDS011;10390;53.566;9.980;2023-02-12T14:49:35;9.65;;;4.50;;
20462;SDS011;10390;53.566;9.980;2023-02-12T14:54:47;10.15;;;4.15;;
20462;SDS011;10390;53.566;9.980;2023-02-12T14:57:38;12.98;;;5.32;;
20462;SDS011;10390;53.566;9.980;2023-02-12T15:05:42;11.27;;;5.63;;
20462;SDS011;10390;53.566;9.980;2023-02-12T15:14:21;14.13;;;5.93;;
20462;SDS011;10390;53.566;9.980;2023-02-12T15:16:50;13.25;;;5.50;;
20462;SDS011;10390;53.566;9.980;2023-02-12T15:22:17;14.02;;;6.30;;
20462;SDS011;10390;53.566;9.980;2023-02-12T15:24:43;9.68;;;5.50;;
20462;SDS011;10390;53.566;9.980;2023-02-12T15:27:10;11.40;;;5.88;;
20462;SDS011;10390;53.566;9.980;2023-02-12T15:29:43;17.98;;;5.85;;
20462;SDS011;10390;53.566;9.980;2023-02-12T15:32:18;11.23;;;5.55;;
20462;SDS011;10390;53.566;9.980;2023-02-12T15:34:48;12.68;;;5.63;;
20462;SDS011;10390;53.566;9.980;2023-02-12T15:37:48;13.57;;;6.20;;
20462;SDS011;10390;53.566;9.980;2023-02-12T15:40:12;25.30;;;6.78;;
20462;SDS011;10390;53.566;9.980;2023-02-12T15:42:39;11.85;;;4.97;;
20462;SDS011;10390;53.566;9.980;2023-02-12T15:47:38;13.52;;;5.72;;
20462;SDS011;10390;53.566;9.980;2023-02-12T15:50:05;12.85;;;5.32;;
20462;SDS011;10390;53.566;9.980;2023-02-12T15:52:36;16.25;;;5.95;;
20462;SDS011;10390;53.566;9.980;2023-02-12T15:55:04;23.50;;;5.32;;
20462;SDS011;10390;53.566;9.980;2023-02-12T15:57:30;10.48;;;4.97;;
20462;SDS011;10390;53.566;9.980;2023-02-12T16:00:00;12.52;;;5.20;;
20462;SDS011;10390;53.566;9.980;2023-02-12T16:02:43;11.60;;;5.75;;
20462;SDS011;10390;53.566;9.980;2023-02-12T16:05:16;13.25;;;5.72;;
20462;SDS011;10390;53.566;9.980;2023-02-12T16:07:42;12.00;;;4.78;;
20462;SDS011;10390;53.566;9.980;2023-02-12T16:10:14;10.95;;;5.20;;
20462;SDS011;10390;53.566;9.980;2023-02-12T16:12:42;18.90;;;4.88;;
20462;SDS011;10390;53.566;9.980;2023-02-12T16:17:59;10.68;;;4.97;;
20462;SDS011;10390;53.566;9.980;2023-02-12T16:20:28;12.40;;;5.00;;
20462;SDS011;10390;53.566;9.980;2023-02-12T16:22:56;11.05;;;4.60;;
20462;SDS011;10390;53.566;9.980;2023-02-12T16:27:55;10.88;;;4.75;;
20462;SDS011;10390;53.566;9.980;2023-02-12T16:30:27;10.45;;;4.60;;
20462;SDS011;10390;53.566;9.980;2023-02-12T16:32:56;10.90;;;4.57;;
20462;SDS011;10390;53.566;9.980;2023-02-12T16:35:28;11.00;;;4.45;;
20462;SDS011;10390;53.566;9.980;2023-02-12T16:40:33;8.85;;;4.20;;
20462;SDS011;10390;53.566;9.980;2023-02-12T16:43:01;10.85;;;4.30;;
20462;SDS011;10390;53.566;9.980;2023-02-12T16:45:47;11.30;;;4.70;;
20462;SDS011;10390;53.566;9.980;2023-02-12T16:48:18;11.38;;;3.80;;
20462;SDS011;10390;53.566;9.980;2023-02-12T16:50:53;8.88;;;4.30;;
20462;SDS011;10390;53.566;9.980;2023-02-12T16:53:27;9.80;;;4.78;;
20462;SDS011;10390;53.566;9.980;2023-02-12T16:55:57;8.25;;;4.30;;
20462;SDS011;10390;53.566;9.980;2023-02-12T16:58:24;10.60;;;4.45;;
20462;SDS011;10390;53.566;9.980;2023-02-12T17:00:52;11.05;;;4.70;;
20462;SDS011;10390;53.566;9.980;2023-02-12T17:03:20;10.93;;;4.30;;
20462;SDS011;10390;53.566;9.980;2023-02-12T17:05:46;9.35;;;4.50;;
20462;SDS011;10390;53.566;9.980;2023-02-12T17:08:18;13.02;;;5.22;;
20462;SDS011;10390;53.566;9.980;2023-02-12T17:10:45;11.60;;;4.40;;
20462;SDS011;10390;53.566;9.980;2023-02-12T17:13:14;7.93;;;4.30;;
20462;SDS011;10390;53.566;9.980;2023-02-12T17:15:42;12.90;;;3.95;;
20462;SDS011;10390;53.566;9.980;2023-02-12T17:18:12;10.85;;;4.70;;
20462;SDS011;10390;53.566;9.980;2023-02-12T17:20:38;13.52;;;4.28;;
20462;SDS011;10390;53.566;9.980;2023-02-12T17:23:04;13.70;;;4.68;;
20462;SDS011;10390;53.566;9.980;2023-02-12T17:25:30;15.10;;;4.60;;
20462;SDS011;10390;53.566;9.980;2023-02-12T17:27:58;13.10;;;4.40;;
20462;SDS011;10390;53.566;9.980;2023-02-12T17:30:24;12.75;;;4.47;;
20462;SDS011;10390;53.566;9.980;2023-02-12T17:32:50;16.33;;;4.80;;
20462;SDS011;10390;53.566;9.980;2023-02-12T17:35:16;15.70;;;4.35;;
20462;SDS011;10390;53.566;9.980;2023-02-12T17:37:42;16.02;;;4.55;;
20462;SDS011;10390;53.566;9.980;2023-02-12T17:40:07;12.73;;;4.40;;
20462;SDS011;10390;53.566;9.980;2023-02-12T17:42:35;14.18;;;4.80;;
20462;SDS011;10390;53.566;9.980;2023-02-12T17:45:01;13.82;;;4.88;;
20462;SDS011;10390;53.566;9.980;2023-02-12T17:47:26;9.52;;;4.28;;
20462;SDS011;10390;53.566;9.980;2023-02-12T17:49:52;14.45;;;4.38;;
20462;SDS011;10390;53.566;9.980;2023-02-12T17:52:18;13.95;;;4.43;;
20462;SDS011;10390;53.566;9.980;2023-02-12T17:54:44;19.85;;;5.00;;
20462;SDS011;10390;53.566;9.980;2023-02-12T17:57:10;15.93;;;4.80;;
20462;SDS011;10390;53.566;9.980;2023-02-12T17:59:36;12.30;;;4.40;;
20462;SDS011;10390;53.566;9.980;2023-02-12T18:02:03;14.75;;;4.75;;
20462;SDS011;10390;53.566;9.980;2023-02-12T18:04:32;12.75;;;3.92;;